Time;durP1;ratioP1;P1;durP2;ratioP2;P2;SDS_P1;SDS_P2;PMS_P1;PMS_P2;Temp;Humidity;BMP_temperature;BMP_pressure;BME280_temperature;BME280_humidity;BME280_pressure;Samples;Min_cycle;Max_cycle;Signal;HPM_P1;HPM_P2
2023/05/12 00:00:38;;;;;;;;;;;;;;;;;;5071116;28;19925;-62
2023/05/12 00:03:05;;;;;;;;;;;;;;;;;;5071756;28;20403;-62
2023/05/12 00:05:32;;;;;;;;;;;;;;;;;;5073881;28;19929;-64
2023/05/12 00:07:59;;;;;;;;;;;;;;;;;;5072371;28;19924;-63
2023/05/12 00:10:26;;;;;;;;;;;;;;;;;;5074037;28;19978;-63
2023/05/12 00:12:55;;;;;;;;;;;;;;;;;;5071826;28;20279;-63
2023/05/12 00:15:22;;;;;;;;;;;;;;;;;;5087056;28;19924;-63
2023/05/12 00:17:51;;;;;;;;;;;;;;;;;;5079573;28;19925;-62
2023/05/12 00:20:18;;;;;;;;;;;;;;;;;;5053764;28;19931;-62
2023/05/12 00:22:45;;;;;;;;;;;;;;;;;;5071288;28;19924;-62
2023/05/12 00:25:12;;;;;;;;;;;;;;;;;;5073283;28;19924;-63
2023/05/12 00:27:39;;;;;;;;;;;;;;;;;;5067447;28;20453;-63
2023/05/12 00:30:06;;;;;;;;;;;;;;;;;;5073592;28;19963;-62
2023/05/12 00:32:33;;;;;;;;;;;;;;;;;;5071610;28;19936;-63
2023/05/12 00:35:00;;;;;;;;;;;;;;;;;;5073198;28;19986;-62
2023/05/12 00:37:27;;;;;;;;;;;;;;;;;;5071523;28;19967;-62
2023/05/12 00:39:54;;;;;;;;;;;;;;;;;;5073197;28;19928;-62
2023/05/12 00:42:21;;;;;;;;;;;;;;;;;;5072260;28;19924;-62
2023/05/12 00:44:48;;;;;;;;;;;;;;;;;;5073437;28;20267;-62
2023/05/12 00:47:15;;;;;;;;;;;;;;;;;;5072690;28;20017;-61
2023/05/12 00:49:42;;;;;;;;;;;;;;;;;;5076040;28;19940;-62
2023/05/12 00:52:09;;;;;;;;;;;;;;;;;;5071945;28;19928;-62
2023/05/12 00:54:36;;;;;;;;;;;;;;;;;;5071541;28;19931;-62
2023/05/12 00:57:03;;;;;;;;;;;;;;;;;;5071884;28;19986;-62
2023/05/12 00:59:30;;;;;;;;;;;;;;;;;;5059743;28;19925;-62
2023/05/12 01:01:57;;;;;;;;;;;;;;;;;;5072544;28;19924;-62
2023/05/12 01:04:24;;;;;;;;;;;;;;;;;;5072532;28;19928;-61
2023/05/12 01:06:51;;;;;;;;;;;;;;;;;;5072086;28;19925;-62
2023/05/12 01:09:18;;;;;;;;;;;;;;;;;;5071135;28;19971;-62
2023/05/12 01:11:45;;;;;;;;;;;;;;;;;;5071304;28;20387;-62
2023/05/12 01:14:12;;;;;;;;;;;;;;;;;;5072804;28;19932;-62
2023/05/12 01:16:39;;;;;;;;;;;;;;;;;;5072707;28;19924;-62
2023/05/12 01:19:06;;;;;;;;;;;;;;;;;;5062813;28;19925;-62
2023/05/12 01:21:33;;;;;;;;;;;;;;;;;;5070574;28;20287;-63
2023/05/12 01:24:00;;;;;;;;;;;;;;;;;;5074887;28;19928;-62
2023/05/12 01:26:28;;;;;;;;;;;;;;;;;;5072644;28;19928;-63
2023/05/12 01:28:55;;;;;;;;;;;;;;;;;;5070281;28;20017;-62
2023/05/12 01:31:22;;;;;;;;;;;;;;;;;;5072067;28;20383;-62
2023/05/12 01:33:49;;;;;;;;;;;;;;;;;;5072215;28;19974;-62
2023/05/12 01:36:16;;;;;;;;;;;;;;;;;;5072701;28;19925;-63
2023/05/12 01:38:43;;;;;;;;;;;;;;;;;;5070403;28;20387;-62
2023/05/12 01:41:10;;;;;;;;;;;;;;;;;;5054680;28;19947;-62
2023/05/12 01:43:37;;;;;;;;;;;;;;;;;;5072694;28;19928;-62
2023/05/12 01:46:04;;;;;;;;;;;;;;;;;;5071549;28;19974;-62
2023/05/12 01:48:31;;;;;;;;;;;;;;;;;;5073741;28;19924;-62
2023/05/12 01:50:58;;;;;;;;;;;;;;;;;;5073045;28;19924;-62
2023/05/12 01:53:25;;;;;;;;;;;;;;;;;;5071107;28;19956;-62
2023/05/12 01:55:52;;;;;;;;;;;;;;;;;;5071386;28;19970;-62
2023/05/12 01:58:19;;;;;;;;;;;;;;;;;;5071793;28;19969;-62
2023/05/12 02:00:46;;;;;;;;;;;;;;;;;;5072117;28;19931;-62
2023/05/12 02:03:13;;;;;;;;;;;;;;;;;;5061453;28;20410;-62
2023/05/12 02:05:40;;;;;;;;;;;;;;;;;;5055310;28;19931;-62
2023/05/12 02:08:07;;;;;;;;;;;;;;;;;;5071090;28;20394;-62
2023/05/12 02:10:34;;;;;;;;;;;;;;;;;;5071859;28;20302;-62
2023/05/12 02:13:01;;;;;;;;;;;;;;;;;;5071812;28;20293;-62
2023/05/12 02:15:28;;;;;;;;;;;;;;;;;;5071752;28;19928;-62
2023/05/12 02:17:57;;;;;;;;;;;;;;;;;;5072361;28;19928;-62
2023/05/12 02:20:24;;;;;;;;;;;;;;;;;;5070513;28;19968;-62
2023/05/12 02:22:51;;;;;;;;;;;;;;;;;;5070778;28;20383;-61
2023/05/12 02:25:18;;;;;;;;;;;;;;;;;;5074650;28;19975;-61
2023/05/12 02:27:45;;;;;;;;;;;;;;;;;;5074706;28;19956;-62
2023/05/12 02:30:12;;;;;;;;;;;;;;;;;;5075471;28;20461;-61
2023/05/12 02:32:39;;;;;;;;;;;;;;;;;;5075604;28;19924;-62
2023/05/12 02:35:06;;;;;;;;;;;;;;;;;;5074502;28;19971;-61
2023/05/12 02:37:33;;;;;;;;;;;;;;;;;;5077390;28;20341;-61
2023/05/12 02:40:00;;;;;;;;;;;;;;;;;;5078659;28;19978;-62
2023/05/12 02:42:32;;;;;;;;;;;;;;;;;;5082727;28;19967;-62
2023/05/12 02:44:59;;;;;;;;;;;;;;;;;;5081213;28;19933;-62
2023/05/12 02:47:30;;;;;;;;;;;;;;;;;;5079073;28;19924;-61
2023/05/12 02:49:57;;;;;;;;;;;;;;;;;;5074375;28;20011;-61
2023/05/12 02:52:24;;;;;;;;;;;;;;;;;;5075844;28;19924;-61
2023/05/12 02:54:51;;;;;;;;;;;;;;;;;;5074765;28;19924;-62
2023/05/12 02:57:18;;;;;;;;;;;;;;;;;;5075338;28;19979;-61
2023/05/12 02:59:45;;;;;;;;;;;;;;;;;;5074644;28;19924;-61
2023/05/12 03:02:12;;;;;;;;;;;;;;;;;;5074848;28;20380;-61
2023/05/12 03:04:39;;;;;;;;;;;;;;;;;;5073279;28;19975;-61
2023/05/12 03:07:06;;;;;;;;;;;;;;;;;;5074764;28;19970;-62
2023/05/12 03:09:33;;;;;;;;;;;;;;;;;;5073368;28;20339;-63
2023/05/12 03:12:00;;;;;;;;;;;;;;;;;;5075166;28;19924;-62
2023/05/12 03:14:27;;;;;;;;;;;;;;;;;;5061968;28;19972;-62
2023/05/12 03:16:54;;;;;;;;;;;;;;;;;;5063773;28;19929;-62
2023/05/12 03:19:21;;;;;;;;;;;;;;;;;;5064311;28;20334;-62
2023/05/12 03:21:48;;;;;;;;;;;;;;;;;;5064032;28;19978;-62
2023/05/12 03:24:15;;;;;;;;;;;;;;;;;;5073572;28;19971;-60
2023/05/12 03:26:42;;;;;;;;;;;;;;;;;;5073480;28;19925;-60
2023/05/12 03:29:09;;;;;;;;;;;;;;;;;;5073799;28;19982;-61
2023/05/12 03:31:36;;;;;;;;;;;;;;;;;;5054545;28;19925;-62
2023/05/12 03:34:03;;;;;;;;;;;;;;;;;;5059702;28;19975;-61
2023/05/12 03:36:30;;;;;;;;;;;;;;;;;;5073736;28;20393;-61
2023/05/12 03:38:57;;;;;;;;;;;;;;;;;;5076811;28;19929;-61
2023/05/12 03:41:24;;;;;;;;;;;;;;;;;;5067707;28;19925;-60
2023/05/12 03:43:51;;;;;;;;;;;;;;;;;;5084236;28;20327;-61
2023/05/12 03:46:18;;;;;;;;;;;;;;;;;;5073804;28;19978;-61
2023/05/12 03:48:45;;;;;;;;;;;;;;;;;;5073179;28;19944;-61
2023/05/12 03:51:12;;;;;;;;;;;;;;;;;;5068447;28;19978;-61
2023/05/12 03:53:41;;;;;;;;;;;;;;;;;;5053887;28;20287;-61
2023/05/12 03:56:08;;;;;;;;;;;;;;;;;;5073214;28;19968;-61
2023/05/12 03:58:35;;;;;;;;;;;;;;;;;;5073719;28;19986;-61
2023/05/12 04:01:02;;;;;;;;;;;;;;;;;;5072445;28;19928;-61
2023/05/12 04:03:29;;;;;;;;;;;;;;;;;;5072611;28;21023;-61
2023/05/12 04:05:56;;;;;;;;;;;;;;;;;;5073326;28;20397;-61
2023/05/12 04:08:23;;;;;;;;;;;;;;;;;;5073662;28;19924;-61
2023/05/12 04:10:51;;;;;;;;;;;;;;;;;;5072498;28;19925;-61
2023/05/12 04:13:18;;;;;;;;;;;;;;;;;;5087017;28;19924;-61
2023/05/12 04:15:45;;;;;;;;;;;;;;;;;;5087901;28;20022;-62
2023/05/12 04:18:12;;;;;;;;;;;;;;;;;;5072659;28;20383;-62
2023/05/12 04:20:38;;;;;;;;;;;;;;;;;;5068278;28;19978;-62
2023/05/12 04:23:06;;;;;;;;;;;;;;;;;;5072551;28;19975;-62
2023/05/12 04:25:33;;;;;;;;;;;;;;;;;;5068665;28;20004;-61
2023/05/12 04:28:00;;;;;;;;;;;;;;;;;;5064228;28;20352;-62
2023/05/12 04:30:27;;;;;;;;;;;;;;;;;;5075821;28;19971;-61
2023/05/12 04:32:54;;;;;;;;;;;;;;;;;;5072072;28;19978;-63
2023/05/12 04:35:21;;;;;;;;;;;;;;;;;;5072361;28;19924;-61
2023/05/12 04:37:49;;;;;;;;;;;;;;;;;;5071932;28;20029;-62
2023/05/12 04:40:16;;;;;;;;;;;;;;;;;;5072401;28;19986;-62
2023/05/12 04:42:43;;;;;;;;;;;;;;;;;;5085080;28;19924;-64
2023/05/12 04:45:10;;;;;;;;;;;;;;;;;;5084557;28;19991;-62
2023/05/12 04:47:37;;;;;;;;;;;;;;;;;;5071816;28;20379;-61
2023/05/12 04:50:04;;;;;;;;;;;;;;;;;;5069855;28;19968;-62
2023/05/12 04:52:31;;;;;;;;;;;;;;;;;;5072903;28;20017;-61
2023/05/12 04:54:58;;;;;;;;;;;;;;;;;;5072412;28;20412;-61
2023/05/12 04:57:25;;;;;;;;;;;;;;;;;;5068240;28;19924;-61
2023/05/12 04:59:52;;;;;;;;;;;;;;;;;;5067977;28;19928;-61
2023/05/12 05:02:19;;;;;;;;;;;;;;;;;;5071954;28;20027;-61
2023/05/12 05:04:46;;;;;;;;;;;;;;;;;;5072589;28;20291;-61
2023/05/12 05:07:13;;;;;;;;;;;;;;;;;;5069998;28;19924;-61
2023/05/12 05:09:40;;;;;;;;;;;;;;;;;;5071384;28;20627;-61
2023/05/12 05:12:07;;;;;;;;;;;;;;;;;;5071660;28;19931;-62
2023/05/12 05:14:34;;;;;;;;;;;;;;;;;;5066148;28;20067;-61
2023/05/12 05:17:01;;;;;;;;;;;;;;;;;;5066558;28;19960;-61
2023/05/12 05:19:28;;;;;;;;;;;;;;;;;;5069447;28;19925;-62
2023/05/12 05:21:55;;;;;;;;;;;;;;;;;;5070738;28;19928;-62
2023/05/12 05:24:23;;;;;;;;;;;;;;;;;;5069409;28;20029;-62
2023/05/12 05:26:50;;;;;;;;;;;;;;;;;;5063990;28;19925;-63
2023/05/12 05:29:17;;;;;;;;;;;;;;;;;;5068622;28;19954;-62
2023/05/12 05:31:44;;;;;;;;;;;;;;;;;;5070468;28;19970;-62
2023/05/12 05:34:11;;;;;;;;;;;;;;;;;;5069597;28;19932;-62
2023/05/12 05:36:38;;;;;;;;;;;;;;;;;;5070836;28;19959;-62
2023/05/12 05:39:05;;;;;;;;;;;;;;;;;;5072662;28;19925;-62
2023/05/12 05:41:32;;;;;;;;;;;;;;;;;;5070895;28;19925;-62
2023/05/12 05:43:59;;;;;;;;;;;;;;;;;;5071648;28;19924;-62
2023/05/12 05:46:26;;;;;;;;;;;;;;;;;;5070604;28;19928;-62
2023/05/12 05:48:53;;;;;;;;;;;;;;;;;;5071049;28;19948;-62
2023/05/12 05:51:20;;;;;;;;;;;;;;;;;;5070752;28;19928;-62
2023/05/12 05:53:47;;;;;;;;;;;;;;;;;;5071511;28;20504;-61
2023/05/12 05:56:14;;;;;;;;;;;;;;;;;;5070362;28;19924;-62
2023/05/12 05:58:41;;;;;;;;;;;;;;;;;;5073758;28;19925;-62
2023/05/12 06:01:08;;;;;;;;;;;;;;;;;;5071637;28;20268;-61
2023/05/12 06:03:35;;;;;;;;;;;;;;;;;;5058339;28;19968;-61
2023/05/12 06:06:02;;;;;;;;;;;;;;;;;;5074173;28;19989;-61
2023/05/12 06:08:29;;;;;;;;;;;;;;;;;;5073483;28;19990;-61
2023/05/12 06:10:56;;;;;;;;;;;;;;;;;;5076505;28;20059;-62
2023/05/12 06:13:23;;;;;;;;;;;;;;;;;;5074207;28;19967;-61
2023/05/12 06:15:51;;;;;;;;;;;;;;;;;;5064407;28;19947;-61
2023/05/12 06:18:18;;;;;;;;;;;;;;;;;;5055058;28;20346;-61
2023/05/12 06:20:45;;;;;;;;;;;;;;;;;;5063544;28;19924;-63
2023/05/12 06:23:12;;;;;;;;;;;;;;;;;;5072394;28;19925;-63
2023/05/12 06:25:40;;;;;;;;;;;;;;;;;;5073416;28;20444;-62
2023/05/12 06:28:07;;;;;;;;;;;;;;;;;;5072819;28;19931;-63
2023/05/12 06:30:34;;;;;;;;;;;;;;;;;;5069957;28;19971;-63
2023/05/12 06:33:01;;;;;;;;;;;;;;;;;;5068381;28;20410;-63
2023/05/12 06:35:28;;;;;;;;;;;;;;;;;;5063579;28;20391;-63
2023/05/12 06:37:55;;;;;;;;;;;;;;;;;;5073770;28;19970;-62
2023/05/12 06:40:22;;;;;;;;;;;;;;;;;;5073472;28;19978;-62
2023/05/12 06:42:49;;;;;;;;;;;;;;;;;;5072881;28;19924;-62
2023/05/12 06:45:16;;;;;;;;;;;;;;;;;;5072995;28;19931;-63
2023/05/12 06:47:43;;;;;;;;;;;;;;;;;;5074215;28;19928;-63
2023/05/12 06:50:10;;;;;;;;;;;;;;;;;;5072653;28;19924;-62
2023/05/12 06:52:37;;;;;;;;;;;;;;;;;;5073095;28;20712;-62
2023/05/12 06:55:05;;;;;;;;;;;;;;;;;;5070176;28;19970;-62
2023/05/12 06:57:32;;;;;;;;;;;;;;;;;;5069864;28;19936;-63
2023/05/12 07:00:01;;;;;;;;;;;;;;;;;;5070166;28;19972;-62
2023/05/12 07:02:29;;;;;;;;;;;;;;;;;;5070934;28;19931;-62
2023/05/12 07:04:56;;;;;;;;;;;;;;;;;;5065003;28;19956;-63
2023/05/12 07:07:23;;;;;;;;;;;;;;;;;;5071278;28;19924;-62
2023/05/12 07:09:50;;;;;;;;;;;;;;;;;;5073095;28;19979;-62
2023/05/12 07:12:17;;;;;;;;;;;;;;;;;;5071057;28;19925;-62
2023/05/12 07:14:44;;;;;;;;;;;;;;;;;;5071793;28;19970;-62
2023/05/12 07:17:11;;;;;;;;;;;;;;;;;;5072790;28;19991;-62
2023/05/12 07:19:39;;;;;;;;;;;;;;;;;;5073135;28;19925;-62
2023/05/12 07:22:06;;;;;;;;;;;;;;;;;;5069287;28;19971;-62
2023/05/12 07:24:33;;;;;;;;;;;;;;;;;;5072310;28;19940;-62
2023/05/12 07:27:00;;;;;;;;;;;;;;;;;;5069706;28;20009;-63
2023/05/12 07:29:27;;;;;;;;;;;;;;;;;;5071004;28;19986;-62
2023/05/12 07:31:54;;;;;;;;;;;;;;;;;;5071600;28;19960;-62
2023/05/12 07:34:21;;;;;;;;;;;;;;;;;;5069648;28;19932;-62
2023/05/12 07:36:48;;;;;;;;;;;;;;;;;;5067579;28;20292;-62
2023/05/12 07:39:18;;;;;;;;;;;;;;;;;;5073164;28;19986;-62
2023/05/12 07:41:45;;;;;;;;;;;;;;;;;;5071616;28;19932;-63
2023/05/12 07:44:12;;;;;;;;;;;;;;;;;;5062203;28;20391;-61
2023/05/12 07:46:39;;;;;;;;;;;;;;;;;;5068954;28;19924;-61
2023/05/12 07:49:06;;;;;;;;;;;;;;;;;;5071558;28;20420;-62
2023/05/12 07:51:33;;;;;;;;;;;;;;;;;;5069647;28;20375;-62
2023/05/12 07:54:00;;;;;;;;;;;;;;;;;;5062117;28;19929;-62
2023/05/12 07:56:27;;;;;;;;;;;;;;;;;;5066405;28;20366;-61
2023/05/12 07:58:54;;;;;;;;;;;;;;;;;;5064667;28;20371;-61
2023/05/12 08:01:22;;;;;;;;;;;;;;;;;;5074036;28;19928;-62
2023/05/12 08:03:50;;;;;;;;;;;;;;;;;;5069964;28;20394;-62
2023/05/12 08:06:17;;;;;;;;;;;;;;;;;;5076986;28;19933;-62
2023/05/12 08:08:44;;;;;;;;;;;;;;;;;;5073673;28;20353;-61
2023/05/12 08:11:11;;;;;;;;;;;;;;;;;;5070114;28;19974;-62
2023/05/12 08:13:38;;;;;;;;;;;;;;;;;;5068092;28;20014;-61
2023/05/12 08:16:05;;;;;;;;;;;;;;;;;;5081005;28;19928;-62
2023/05/12 08:18:32;;;;;;;;;;;;;;;;;;5069327;28;20045;-62
2023/05/12 08:20:59;;;;;;;;;;;;;;;;;;5070224;28;19971;-61
2023/05/12 08:23:26;;;;;;;;;;;;;;;;;;5072200;28;19924;-61
2023/05/12 08:25:53;;;;;;;;;;;;;;;;;;5067763;28;19974;-61
2023/05/12 08:28:20;;;;;;;;;;;;;;;;;;5067198;28;21877;-61
2023/05/12 08:30:47;;;;;;;;;;;;;;;;;;5066846;28;19943;-61
2023/05/12 08:33:14;;;;;;;;;;;;;;;;;;5069527;28;20327;-61
2023/05/12 08:35:41;;;;;;;;;;;;;;;;;;5071624;28;20009;-62
2023/05/12 08:38:08;;;;;;;;;;;;;;;;;;5072851;28;19978;-61
2023/05/12 08:40:35;;;;;;;;;;;;;;;;;;5067956;28;20355;-61
2023/05/12 08:43:02;;;;;;;;;;;;;;;;;;5071188;28;19932;-61
2023/05/12 08:45:29;;;;;;;;;;;;;;;;;;5067873;28;20380;-61
2023/05/12 08:47:56;;;;;;;;;;;;;;;;;;5061962;28;19925;-62
2023/05/12 08:50:23;;;;;;;;;;;;;;;;;;5088414;28;19924;-62
2023/05/12 08:52:51;;;;;;;;;;;;;;;;;;5068091;28;20025;-62
2023/05/12 08:55:18;;;;;;;;;;;;;;;;;;5070197;28;19930;-62
2023/05/12 08:57:47;;;;;;;;;;;;;;;;;;5069915;28;20002;-61
2023/05/12 09:00:14;;;;;;;;;;;;;;;;;;5070611;28;19924;-62
2023/05/12 09:02:41;;;;;;;;;;;;;;;;;;5063258;28;20383;-61
2023/05/12 09:05:08;;;;;;;;;;;;;;;;;;5069603;28;19924;-61
2023/05/12 09:07:35;;;;;;;;;;;;;;;;;;5070817;28;20742;-61
2023/05/12 09:10:02;;;;;;;;;;;;;;;;;;5070349;28;19959;-61
2023/05/12 09:12:29;;;;;;;;;;;;;;;;;;5071181;28;20726;-62
2023/05/12 09:14:56;;;;;;;;;;;;;;;;;;5071568;28;20328;-62
2023/05/12 09:17:23;;;;;;;;;;;;;;;;;;5069420;28;19928;-61
2023/05/12 09:19:50;;;;;;;;;;;;;;;;;;5070570;28;19932;-61
2023/05/12 09:22:18;;;;;;;;;;;;;;;;;;5068772;28;19978;-61
2023/05/12 09:24:45;;;;;;;;;;;;;;;;;;5062425;28;19932;-62
2023/05/12 09:27:12;;;;;;;;;;;;;;;;;;5075575;28;19972;-62
2023/05/12 09:29:39;;;;;;;;;;;;;;;;;;5065627;28;20435;-62
2023/05/12 09:32:06;;;;;;;;;;;;;;;;;;5067822;28;19974;-62
2023/05/12 09:34:34;;;;;;;;;;;;;;;;;;5069717;28;19989;-61
2023/05/12 09:37:01;;;;;;;;;;;;;;;;;;5073234;28;19924;-61
2023/05/12 09:39:28;;;;;;;;;;;;;;;;;;5066374;28;19924;-62
2023/05/12 09:41:55;;;;;;;;;;;;;;;;;;5062216;28;19960;-62
2023/05/12 09:44:22;;;;;;;;;;;;;;;;;;5065123;28;19924;-62
2023/05/12 09:46:50;;;;;;;;;;;;;;;;;;5075558;28;20339;-62
2023/05/12 09:49:17;;;;;;;;;;;;;;;;;;5069241;28;19929;-62
2023/05/12 09:51:44;;;;;;;;;;;;;;;;;;5071396;28;19972;-62
2023/05/12 09:54:11;;;;;;;;;;;;;;;;;;5068848;28;19970;-62
2023/05/12 09:56:38;;;;;;;;;;;;;;;;;;5085580;28;19985;-62
2023/05/12 09:59:05;;;;;;;;;;;;;;;;;;5070060;28;19932;-62
2023/05/12 10:01:33;;;;;;;;;;;;;;;;;;5067795;28;20003;-63
2023/05/12 10:04:00;;;;;;;;;;;;;;;;;;5069439;28;19944;-61
2023/05/12 10:06:27;;;;;;;;;;;;;;;;;;5067818;28;19933;-62
2023/05/12 10:08:54;;;;;;;;;;;;;;;;;;5068181;28;20759;-62
2023/05/12 10:11:21;;;;;;;;;;;;;;;;;;5070400;28;19924;-62
2023/05/12 10:13:48;;;;;;;;;;;;;;;;;;5081575;28;20387;-63
2023/05/12 10:16:15;;;;;;;;;;;;;;;;;;5068371;28;19924;-62
2023/05/12 10:18:43;;;;;;;;;;;;;;;;;;5068068;28;19925;-62
2023/05/12 10:21:10;;;;;;;;;;;;;;;;;;5066272;28;19960;-62
2023/05/12 10:23:37;;;;;;;;;;;;;;;;;;5076473;28;19972;-63
2023/05/12 10:26:05;;;;;;;;;;;;;;;;;;5067540;28;19970;-63
2023/05/12 10:28:32;;;;;;;;;;;;;;;;;;5067064;28;19943;-62
2023/05/12 10:30:59;;;;;;;;;;;;;;;;;;5060228;28;20462;-62
2023/05/12 10:33:26;;;;;;;;;;;;;;;;;;5065479;28;19931;-63
2023/05/12 10:35:53;;;;;;;;;;;;;;;;;;5084512;28;20319;-63
2023/05/12 10:38:20;;;;;;;;;;;;;;;;;;5071728;28;19924;-63
2023/05/12 10:40:47;;;;;;;;;;;;;;;;;;5066931;28;19924;-63
2023/05/12 10:43:14;;;;;;;;;;;;;;;;;;5064440;28;19928;-62
2023/05/12 10:45:42;;;;;;;;;;;;;;;;;;5072920;28;19924;-62
2023/05/12 10:48:09;;;;;;;;;;;;;;;;;;5074410;28;19936;-63
2023/05/12 10:50:36;;;;;;;;;;;;;;;;;;5072232;28;19940;-63
2023/05/12 10:53:03;;;;;;;;;;;;;;;;;;5074806;28;19925;-63
2023/05/12 10:55:30;;;;;;;;;;;;;;;;;;5074502;28;19924;-62
2023/05/12 10:57:57;;;;;;;;;;;;;;;;;;5072553;28;19966;-63
2023/05/12 11:00:25;;;;;;;;;;;;;;;;;;5070063;28;19967;-63
2023/05/12 11:02:52;;;;;;;;;;;;;;;;;;5073516;28;19935;-63
2023/05/12 11:05:19;;;;;;;;;;;;;;;;;;5073508;28;20383;-63
2023/05/12 11:07:46;;;;;;;;;;;;;;;;;;5070600;28;19925;-62
2023/05/12 11:10:13;;;;;;;;;;;;;;;;;;5074867;28;20401;-63
2023/05/12 11:12:40;;;;;;;;;;;;;;;;;;5077784;28;19924;-63
2023/05/12 11:15:07;;;;;;;;;;;;;;;;;;5077040;28;19924;-62
2023/05/12 11:17:34;;;;;;;;;;;;;;;;;;5073654;28;20360;-63
2023/05/12 11:20:01;;;;;;;;;;;;;;;;;;5073113;28;19944;-63
2023/05/12 11:22:28;;;;;;;;;;;;;;;;;;5072631;28;19932;-63
2023/05/12 11:24:55;;;;;;;;;;;;;;;;;;5071412;28;20073;-62
2023/05/12 11:27:22;;;;;;;;;;;;;;;;;;5071388;28;19968;-63
2023/05/12 11:29:49;;;;;;;;;;;;;;;;;;5071458;28;19947;-62
2023/05/12 11:32:16;;;;;;;;;;;;;;;;;;5069956;28;19963;-63
2023/05/12 11:34:43;;;;;;;;;;;;;;;;;;5071959;28;19928;-63
2023/05/12 11:37:10;;;;;;;;;;;;;;;;;;5071952;28;20382;-63
2023/05/12 11:39:37;;;;;;;;;;;;;;;;;;5070285;28;19924;-63
2023/05/12 11:42:04;;;;;;;;;;;;;;;;;;5068439;28;20387;-63
2023/05/12 11:44:31;;;;;;;;;;;;;;;;;;5068853;28;19960;-63
2023/05/12 11:46:58;;;;;;;;;;;;;;;;;;5074527;28;19978;-63
2023/05/12 11:49:25;;;;;;;;;;;;;;;;;;5072221;28;19924;-63
2023/05/12 11:51:52;;;;;;;;;;;;;;;;;;5066962;28;19954;-63
2023/05/12 11:54:19;;;;;;;;;;;;;;;;;;5066319;28;19925;-63
2023/05/12 11:56:46;;;;;;;;;;;;;;;;;;5067605;28;20009;-63
2023/05/12 11:59:13;;;;;;;;;;;;;;;;;;5065259;28;19928;-63
2023/05/12 12:01:40;;;;;;;;;;;;;;;;;;5078420;28;20702;-63
2023/05/12 12:04:07;;;;;;;;;;;;;;;;;;5069980;28;19924;-63
2023/05/12 12:06:34;;;;;;;;;;;;;;;;;;5065726;28;20272;-63
2023/05/12 12:09:01;;;;;;;;;;;;;;;;;;5074392;28;19924;-62
2023/05/12 12:11:29;;;;;;;;;;;;;;;;;;5065352;28;20398;-63
2023/05/12 12:13:56;;;;;;;;;;;;;;;;;;5071341;28;19924;-62
2023/05/12 12:16:23;;;;;;;;;;;;;;;;;;5071982;28;19928;-63
2023/05/12 12:18:50;;;;;;;;;;;;;;;;;;5085467;28;20015;-63
2023/05/12 12:21:17;;;;;;;;;;;;;;;;;;5075866;28;19974;-63
2023/05/12 12:23:44;;;;;;;;;;;;;;;;;;5071230;28;19928;-63
2023/05/12 12:26:13;;;;;;;;;;;;;;;;;;5071800;28;19924;-63
2023/05/12 12:28:40;;;;;;;;;;;;;;;;;;5063817;28;19932;-63
2023/05/12 12:31:07;;;;;;;;;;;;;;;;;;5066177;28;20009;-62
2023/05/12 12:33:34;;;;;;;;;;;;;;;;;;5073586;28;19998;-63
2023/05/12 12:36:01;;;;;;;;;;;;;;;;;;5065932;28;19960;-63
2023/05/12 12:38:28;;;;;;;;;;;;;;;;;;5062596;28;19925;-63
2023/05/12 12:40:55;;;;;;;;;;;;;;;;;;5068998;28;19928;-63
2023/05/12 12:43:22;;;;;;;;;;;;;;;;;;5065759;28;19970;-63
2023/05/12 12:45:49;;;;;;;;;;;;;;;;;;5071821;28;19972;-63
2023/05/12 12:48:17;;;;;;;;;;;;;;;;;;5072169;28;19929;-62
2023/05/12 12:50:44;;;;;;;;;;;;;;;;;;5072172;28;19924;-63
2023/05/12 12:53:11;;;;;;;;;;;;;;;;;;5070527;28;19924;-63
2023/05/12 12:55:38;;;;;;;;;;;;;;;;;;5069389;28;19970;-62
2023/05/12 12:58:05;;;;;;;;;;;;;;;;;;5072552;28;20703;-64
2023/05/12 13:00:31;;;;;;;;;;;;;;;;;;5069193;28;20012;-63
2023/05/12 13:02:58;;;;;;;;;;;;;;;;;;5060007;28;19924;-62
2023/05/12 13:05:25;;;;;;;;;;;;;;;;;;5068621;28;20359;-63
2023/05/12 13:07:52;;;;;;;;;;;;;;;;;;5069134;28;19970;-63
2023/05/12 13:10:19;;;;;;;;;;;;;;;;;;5069303;28;19925;-63
2023/05/12 13:12:46;;;;;;;;;;;;;;;;;;5061170;28;19994;-63
2023/05/12 13:15:13;;;;;;;;;;;;;;;;;;5062195;28;19924;-63
2023/05/12 13:17:40;;;;;;;;;;;;;;;;;;5068813;28;19924;-63
2023/05/12 13:20:07;;;;;;;;;;;;;;;;;;5066267;28;19928;-63
2023/05/12 13:22:34;;;;;;;;;;;;;;;;;;5065020;28;19956;-63
2023/05/12 13:25:02;;;;;;;;;;;;;;;;;;5061482;28;20338;-63
2023/05/12 13:27:29;;;;;;;;;;;;;;;;;;5068446;28;20375;-65
2023/05/12 13:29:56;;;;;;;;;;;;;;;;;;5070037;28;19928;-63
2023/05/12 13:32:23;;;;;;;;;;;;;;;;;;5064591;28;19947;-63
2023/05/12 13:34:50;;;;;;;;;;;;;;;;;;5068486;28;20021;-63
2023/05/12 13:37:17;;;;;;;;;;;;;;;;;;5064271;28;19967;-63
2023/05/12 13:39:44;;;;;;;;;;;;;;;;;;5073302;28;19924;-64
2023/05/12 13:42:11;;;;;;;;;;;;;;;;;;5061526;28;19928;-64
2023/05/12 13:44:47;;;;;;;;;;;;;;;;;;5067372;28;19925;-64
2023/05/12 13:47:14;;;;;;;;;;;;;;;;;;5071412;28;19928;-63
2023/05/12 13:49:41;;;;;;;;;;;;;;;;;;5066081;28;19967;-63
2023/05/12 13:52:08;;;;;;;;;;;;;;;;;;5072156;28;19925;-62
2023/05/12 13:54:35;;;;;;;;;;;;;;;;;;5067900;28;19929;-63
2023/05/12 13:57:03;;;;;;;;;;;;;;;;;;5067430;28;20436;-63
2023/05/12 13:59:30;;;;;;;;;;;;;;;;;;5066856;28;19925;-63
2023/05/12 14:01:57;;;;;;;;;;;;;;;;;;5069134;28;19924;-64
2023/05/12 14:04:25;;;;;;;;;;;;;;;;;;5062950;28;19933;-63
2023/05/12 14:06:52;;;;;;;;;;;;;;;;;;5066182;28;19974;-61
2023/05/12 14:09:19;;;;;;;;;;;;;;;;;;5078882;28;19924;-63
2023/05/12 14:11:46;;;;;;;;;;;;;;;;;;5065310;28;20042;-64
2023/05/12 14:14:13;;;;;;;;;;;;;;;;;;5066308;28;19928;-64
2023/05/12 14:16:40;;;;;;;;;;;;;;;;;;5064349;28;19931;-63
2023/05/12 14:19:08;;;;;;;;;;;;;;;;;;5063579;28;20443;-63
2023/05/12 14:21:35;;;;;;;;;;;;;;;;;;5065714;28;19940;-63
2023/05/12 14:24:02;;;;;;;;;;;;;;;;;;5070102;28;19961;-63
2023/05/12 14:26:29;;;;;;;;;;;;;;;;;;5068392;28;20065;-63
2023/05/12 14:28:56;;;;;;;;;;;;;;;;;;5067148;28;19964;-63
2023/05/12 14:31:23;;;;;;;;;;;;;;;;;;5068491;28;20270;-63
2023/05/12 14:33:51;;;;;;;;;;;;;;;;;;5068039;28;19976;-63
2023/05/12 14:36:18;;;;;;;;;;;;;;;;;;5064245;28;19924;-63
2023/05/12 14:38:47;;;;;;;;;;;;;;;;;;5072997;28;19924;-62
2023/05/12 14:41:14;;;;;;;;;;;;;;;;;;5073116;28;19928;-65
2023/05/12 14:43:41;;;;;;;;;;;;;;;;;;5072715;28;19977;-63
2023/05/12 14:46:08;;;;;;;;;;;;;;;;;;5077673;28;20353;-63
2023/05/12 14:48:35;;;;;;;;;;;;;;;;;;5076946;28;20114;-63
2023/05/12 14:51:02;;;;;;;;;;;;;;;;;;5067809;28;19972;-62
2023/05/12 14:53:30;;;;;;;;;;;;;;;;;;5066905;28;19958;-63
2023/05/12 14:55:57;;;;;;;;;;;;;;;;;;5073845;28;20379;-62
2023/05/12 14:58:24;;;;;;;;;;;;;;;;;;5072910;28;19924;-62
2023/05/12 15:00:51;;;;;;;;;;;;;;;;;;5077704;28;19924;-63
2023/05/12 15:03:19;;;;;;;;;;;;;;;;;;5076242;28;19977;-63
2023/05/12 15:05:47;;;;;;;;;;;;;;;;;;5067284;28;19989;-63
2023/05/12 15:08:15;;;;;;;;;;;;;;;;;;5070771;28;19963;-62
2023/05/12 15:10:43;;;;;;;;;;;;;;;;;;5068881;28;19944;-65
2023/05/12 15:13:10;;;;;;;;;;;;;;;;;;5059090;28;20406;-64
2023/05/12 15:15:38;;;;;;;;;;;;;;;;;;5073681;28;20353;-63
2023/05/12 15:18:06;;;;;;;;;;;;;;;;;;5072968;28;19970;-62
2023/05/12 15:20:33;;;;;;;;;;;;;;;;;;5072108;28;19932;-62
2023/05/12 15:23:00;;;;;;;;;;;;;;;;;;5066429;28;19928;-64
2023/05/12 15:25:27;;;;;;;;;;;;;;;;;;5068579;28;19929;-62
2023/05/12 15:27:54;;;;;;;;;;;;;;;;;;5065229;28;19964;-63
2023/05/12 15:30:21;;;;;;;;;;;;;;;;;;5061212;28;19970;-63
2023/05/12 15:32:48;;;;;;;;;;;;;;;;;;5063988;28;20028;-62
2023/05/12 15:35:15;;;;;;;;;;;;;;;;;;5068018;28;20445;-62
2023/05/12 15:37:42;;;;;;;;;;;;;;;;;;5071126;28;19924;-63
2023/05/12 15:40:09;;;;;;;;;;;;;;;;;;5065116;28;20295;-62
2023/05/12 15:42:36;;;;;;;;;;;;;;;;;;5067041;28;19977;-63
2023/05/12 15:45:03;;;;;;;;;;;;;;;;;;5061438;28;19970;-62
2023/05/12 15:47:30;;;;;;;;;;;;;;;;;;5060274;28;19925;-63
2023/05/12 15:49:57;;;;;;;;;;;;;;;;;;5066007;28;19938;-67
2023/05/12 15:52:26;;;;;;;;;;;;;;;;;;5062044;28;19936;-67
2023/05/12 15:54:53;;;;;;;;;;;;;;;;;;5072489;28;20329;-67
2023/05/12 15:57:20;;;;;;;;;;;;;;;;;;5063583;28;19964;-67
2023/05/12 15:59:47;;;;;;;;;;;;;;;;;;5069122;28;19997;-67
2023/05/12 16:02:14;;;;;;;;;;;;;;;;;;5068615;28;19959;-67
2023/05/12 16:04:41;;;;;;;;;;;;;;;;;;5067022;28;19924;-68
2023/05/12 16:07:08;;;;;;;;;;;;;;;;;;5076768;28;19986;-67
2023/05/12 16:09:35;;;;;;;;;;;;;;;;;;5070609;28;19959;-67
2023/05/12 16:12:02;;;;;;;;;;;;;;;;;;5071111;28;19960;-66
2023/05/12 16:14:29;;;;;;;;;;;;;;;;;;5075590;28;20429;-67
2023/05/12 16:16:56;;;;;;;;;;;;;;;;;;5070787;28;19958;-67
2023/05/12 16:19:23;;;;;;;;;;;;;;;;;;5067000;28;19960;-67
2023/05/12 16:21:50;;;;;;;;;;;;;;;;;;5069592;28;20448;-67
2023/05/12 16:24:17;;;;;;;;;;;;;;;;;;5071086;28;19978;-68
2023/05/12 16:26:44;;;;;;;;;;;;;;;;;;5072124;28;20379;-67
2023/05/12 16:29:12;;;;;;;;;;;;;;;;;;5069705;28;19970;-67
2023/05/12 16:31:39;;;;;;;;;;;;;;;;;;5073014;28;19924;-68
2023/05/12 16:34:06;;;;;;;;;;;;;;;;;;5065031;28;19924;-69
2023/05/12 16:36:34;;;;;;;;;;;;;;;;;;5067885;28;20026;-68
2023/05/12 16:39:01;;;;;;;;;;;;;;;;;;5069430;28;20388;-68
2023/05/12 16:41:28;;;;;;;;;;;;;;;;;;5074525;28;19932;-68
2023/05/12 16:43:55;;;;;;;;;;;;;;;;;;5086562;28;19925;-69